Fargo, ND (58102)

4:14 AM CDT on April 23, 2018 (GMT -0500)
Northport | | Change Station
Active Advisory: Flood Warning

Elev 899 ft 46.91 °N, 96.79 °W | Updated 6 seconds ago

Overcast
Overcast
43.3 °F
Feels Like 43 °F
N
2.0
Wind Variable Wind from NNE
Gusts 2.0 mph

Today
High -- | Low -- °F
--% Chance of Precip.
Yesterday
High -- | Low -- °F
Precip. -- in
Pressure 30.17 in
Visibility 10.0 miles
Clouds Overcast 10000 ft
Windchill 43 °F
Dew Point 37 °F
Humidity 77%
Rainfall 0.00 in
Snow Depth Not available.
6:25 AM 8:26 PM
First Quarter, 55% visible
METAR KFAR 230853Z AUTO 18009KT 10SM OVC100 06/03 A3016 RMK AO2 SLP217 T00610028 57001
Pressure 30.17 in
Visibility 10.0 miles
Clouds Overcast 10000 ft
Windchill 43 °F
Dew Point 37 °F
Humidity 77%
Rainfall 0.00 in
Snow Depth Not available.
6:25 AM 8:26 PM
First Quarter, 55% visible
METAR KFAR 230853Z AUTO 18009KT 10SM OVC100 06/03 A3016 RMK AO2 SLP217 T00610028 57001

Get Your Daily Forecast Email!

Thanks for signing up!

Be on the lookout for a verification email in your inbox.

You'll start receiving severe weather alerts in your inbox..

×

10-Day Weather Forecast

Almanac

Astronomy

Apr. 23, 2018 Rise Set
Actual Time
Civil Twilight
Nautical Twilight
Astronomical Twilight
Moon
Length of Visible Light
Length of Day
Tomorrow will be .
, % of the Moon is Illuminated

Today's Extremes

State Highs State Lows

Community

WunderPhotos

Category 6

Welcome to Category 6. This is the collective home for Weather Underground's featured writeups by Dr. Jeff Masters (right), Bob Henson (left), Chris Burt, and other regular contributors.

Nearby

Air Quality

  Air Quality AQ Index Pollutant
Not available.

Snow Depth

Station Depth Elevation

Earthquake Activity

City Distance Mag. Time & Date
Minimum magnitude displayed is 2.5.

Coastal Water Temperatures

Place Temperature

Stations

Nearby Weather Stations

Station Location Temp. Windchill Dew Point Humidity Wind Precip. Elev Updated Type
                   

Watches & Warnings

Flood Warning
Issued: 9:55 PM CDT Apr. 22, 2018 – National Weather Service

The Flood Warning continues for...
* ... Enderlin... on the Maple River.
* Until late Wednesday night... or until the warning is cancelled.
* At 8:00 PM Sunday the stage was 9.9 feet.
* Minor flooding is occurring and during the next 7 days... minor
flooding is forecast.
* Minor flood stage is 9.5 feet.
* Forecast... the river will rise to a crest near 10.1 feet sometime
Monday afternoon. The river will fall below flood stage
Tuesday evening.
* Impact statement(s) - at 9.5 feet, Flood Warning stage... minor.
Observer's farm near gage begins to flood.


Daily 7pm CDT/6pm CST forecast stage in feet:

date Mon Tue Wed Thu Fri Sat sun
(month/day) 04/23 04/24 04/25 04/26 04/27 04/28 04/29
Enderlin 10.1 9.5 8.5 7.6 6.5 5.5 4.8


Lat... Lon 4669 9768 4679 9732 4670 9722 4658 9760